DAL740 KJFK-KSEA
Flight info
| Callsign | DAL740 |
|---|---|
| Flight time | N/A |
| Altitude | 32000 |
| Route | COATE Q436 RAAKK Q440 HUFFR/N0459F340 KP06C KU12U MLP GLASR3 |
| Aircraft | A21N/M-SDE2E3FGHIRWXY/LB1 |
Departure
| Time | 2026-05-09 15:38 |
|---|---|
| Airport | John F. Kennedy International Airport (KJFK) |
Arrival
| Time | N/A |
|---|---|
| Airport | Seattle–Tacoma International Airport (KSEA) |
| Time | Latitude | Longitude | Altitude | Speed | Heading |
|---|---|---|---|---|---|
| 2026-05-09 15:06 | 40.63904 | -73.78040 | 21 ft | 0 kts | 263° |
| 2026-05-09 15:25 | 40.63904 | -73.78030 | 21 ft | 2 kts | 264° |
| 2026-05-09 15:25 | 40.63906 | -73.78004 | 21 ft | 3 kts | 265° |
| 2026-05-09 15:25 | 40.63908 | -73.77978 | 21 ft | 3 kts | 260° |
| 2026-05-09 15:26 | 40.63922 | -73.77940 | 24 ft | 2 kts | 184° |
| 2026-05-09 15:26 | 40.63925 | -73.77940 | 21 ft | 1 kts | 171° |
| 2026-05-09 15:26 | 40.63926 | -73.77940 | 21 ft | 0 kts | 171° |
| 2026-05-09 15:30 | 40.63925 | -73.77940 | 21 ft | 0 kts | 171° |
| 2026-05-09 15:30 | 40.63908 | -73.77937 | 22 ft | 5 kts | 172° |
| 2026-05-09 15:30 | 40.63857 | -73.77928 | 21 ft | 9 kts | 173° |
| 2026-05-09 15:31 | 40.63789 | -73.77918 | 21 ft | 10 kts | 173° |
| 2026-05-09 15:31 | 40.63714 | -73.77906 | 21 ft | 12 kts | 173° |
| 2026-05-09 15:31 | 40.63642 | -73.77894 | 21 ft | 6 kts | 173° |
| 2026-05-09 15:31 | 40.63594 | -73.77879 | 21 ft | 8 kts | 158° |
| 2026-05-09 15:32 | 40.63552 | -73.77821 | 21 ft | 10 kts | 122° |
| 2026-05-09 15:32 | 40.63517 | -73.77744 | 22 ft | 8 kts | 119° |
| 2026-05-09 15:32 | 40.63536 | -73.77685 | 22 ft | 8 kts | 33° |
| 2026-05-09 15:32 | 40.63589 | -73.77643 | 23 ft | 10 kts | 31° |
| 2026-05-09 15:33 | 40.63653 | -73.77593 | 22 ft | 12 kts | 30° |
| 2026-05-09 15:33 | 40.63732 | -73.77531 | 21 ft | 14 kts | 31° |
| 2026-05-09 15:33 | 40.63825 | -73.77458 | 22 ft | 17 kts | 31° |
| 2026-05-09 15:33 | 40.63929 | -73.77377 | 22 ft | 18 kts | 31° |
| 2026-05-09 15:34 | 40.64038 | -73.77292 | 22 ft | 19 kts | 30° |
| 2026-05-09 15:34 | 40.64152 | -73.77203 | 24 ft | 19 kts | 31° |
| 2026-05-09 15:34 | 40.64268 | -73.77112 | 22 ft | 20 kts | 31° |
| 2026-05-09 15:34 | 40.64374 | -73.77029 | 21 ft | 15 kts | 30° |
| 2026-05-09 15:35 | 40.64469 | -73.76992 | 21 ft | 14 kts | 3° |
| 2026-05-09 15:35 | 40.64551 | -73.76955 | 21 ft | 13 kts | 31° |
| 2026-05-09 15:35 | 40.64638 | -73.76886 | 23 ft | 16 kts | 31° |
| 2026-05-09 15:35 | 40.64740 | -73.76806 | 24 ft | 17 kts | 31° |
| 2026-05-09 15:36 | 40.64847 | -73.76723 | 22 ft | 18 kts | 30° |
| 2026-05-09 15:36 | 40.64956 | -73.76639 | 21 ft | 18 kts | 31° |
| 2026-05-09 15:36 | 40.65062 | -73.76556 | 22 ft | 18 kts | 30° |
| 2026-05-09 15:36 | 40.65103 | -73.76484 | 21 ft | 7 kts | 100° |
| 2026-05-09 15:37 | 40.65077 | -73.76423 | 21 ft | 9 kts | 121° |
| 2026-05-09 15:37 | 40.65035 | -73.76364 | 21 ft | 10 kts | 165° |
| 2026-05-09 15:37 | 40.64966 | -73.76397 | 21 ft | 14 kts | 211° |
| 2026-05-09 15:37 | 40.64732 | -73.76582 | 23 ft | 72 kts | 210° |
| 2026-05-09 15:38 | 40.64103 | -73.77074 | 25 ft | 137 kts | 211° |
| 2026-05-09 15:38 | 40.63141 | -73.77830 | 68 ft | 179 kts | 210° |
| 2026-05-09 15:38 | 40.62126 | -73.78639 | 796 ft | 172 kts | 208° |
| 2026-05-09 15:38 | 40.61076 | -73.79452 | 1612 ft | 177 kts | 211° |
| 2026-05-09 15:39 | 40.59953 | -73.80350 | 2226 ft | 207 kts | 213° |
| 2026-05-09 15:39 | 40.58607 | -73.81427 | 2818 ft | 239 kts | 212° |
| 2026-05-09 15:39 | 40.57063 | -73.82241 | 3772 ft | 239 kts | 192° |
| 2026-05-09 15:39 | 40.55386 | -73.82040 | 4480 ft | 252 kts | 166° |
| 2026-05-09 15:40 | 40.53874 | -73.80779 | 5203 ft | 267 kts | 140° |
| 2026-05-09 15:40 | 40.52915 | -73.78599 | 6232 ft | 285 kts | 111° |
| 2026-05-09 15:40 | 40.52732 | -73.75939 | 7280 ft | 302 kts | 88° |
| 2026-05-09 15:40 | 40.53380 | -73.73273 | 8321 ft | 313 kts | 63° |
| 2026-05-09 15:41 | 40.54765 | -73.71033 | 9301 ft | 322 kts | 43° |
| 2026-05-09 15:41 | 40.56503 | -73.69188 | 10193 ft | 328 kts | 38° |
| 2026-05-09 15:41 | 40.58361 | -73.67336 | 10603 ft | 342 kts | 37° |
| 2026-05-09 15:41 | 40.60301 | -73.65390 | 10894 ft | 360 kts | 37° |
| 2026-05-09 15:42 | 40.62330 | -73.63335 | 11158 ft | 375 kts | 37° |
| 2026-05-09 15:42 | 40.64436 | -73.61190 | 11412 ft | 390 kts | 37° |
| 2026-05-09 15:42 | 40.66623 | -73.58949 | 11696 ft | 404 kts | 37° |
| 2026-05-09 15:42 | 40.68851 | -73.56654 | 12232 ft | 409 kts | 37° |
| 2026-05-09 15:43 | 40.71106 | -73.54308 | 12835 ft | 413 kts | 37° |
| 2026-05-09 15:43 | 40.73433 | -73.52069 | 13425 ft | 415 kts | 26° |
| 2026-05-09 15:43 | 40.76100 | -73.50688 | 13989 ft | 410 kts | 8° |
| 2026-05-09 15:43 | 40.78904 | -73.50325 | 14534 ft | 404 kts | 354° |
| 2026-05-09 15:44 | 40.81663 | -73.50810 | 15063 ft | 394 kts | 337° |
| 2026-05-09 15:44 | 40.84207 | -73.52085 | 15625 ft | 390 kts | 329° |
| 2026-05-09 15:44 | 40.86669 | -73.53585 | 16188 ft | 391 kts | 328° |
| 2026-05-09 15:44 | 40.89137 | -73.55149 | 16725 ft | 393 kts | 327° |
| 2026-05-09 15:45 | 40.91574 | -73.56707 | 16980 ft | 394 kts | 326° |
| 2026-05-09 15:45 | 40.93788 | -73.58713 | 17274 ft | 382 kts | 310° |
| 2026-05-09 15:45 | 40.95468 | -73.61426 | 17753 ft | 373 kts | 295° |
| 2026-05-09 15:45 | 40.96492 | -73.64542 | 18272 ft | 367 kts | 281° |
| 2026-05-09 15:46 | 40.97066 | -73.67817 | 18747 ft | 367 kts | 278° |
| 2026-05-09 15:46 | 40.97587 | -73.71146 | 19216 ft | 369 kts | 278° |
| 2026-05-09 15:46 | 40.98121 | -73.74477 | 19685 ft | 371 kts | 278° |
| 2026-05-09 15:46 | 40.98668 | -73.77828 | 20139 ft | 373 kts | 278° |
| 2026-05-09 15:47 | 40.99227 | -73.81189 | 20557 ft | 375 kts | 278° |
| 2026-05-09 15:47 | 40.99788 | -73.84565 | 20963 ft | 377 kts | 278° |
| 2026-05-09 15:47 | 41.00353 | -73.87974 | 21372 ft | 379 kts | 278° |
| 2026-05-09 15:47 | 41.00917 | -73.91387 | 21792 ft | 381 kts | 278° |
| 2026-05-09 15:48 | 41.01486 | -73.94823 | 22200 ft | 382 kts | 278° |
| 2026-05-09 15:48 | 41.02050 | -73.98237 | 22603 ft | 384 kts | 278° |
| 2026-05-09 15:48 | 41.02622 | -74.01699 | 22983 ft | 386 kts | 278° |
| 2026-05-09 15:48 | 41.03197 | -74.05180 | 23351 ft | 387 kts | 278° |
| 2026-05-09 15:49 | 41.03770 | -74.08669 | 23686 ft | 389 kts | 278° |
| 2026-05-09 15:49 | 41.04343 | -74.12177 | 24000 ft | 390 kts | 278° |
| 2026-05-09 15:49 | 41.04916 | -74.15698 | 24305 ft | 391 kts | 278° |
| 2026-05-09 15:49 | 41.05488 | -74.19224 | 24628 ft | 392 kts | 278° |
| 2026-05-09 15:50 | 41.06061 | -74.22777 | 24935 ft | 393 kts | 278° |
| 2026-05-09 15:50 | 41.06634 | -74.26325 | 25228 ft | 395 kts | 278° |
| 2026-05-09 15:50 | 41.07214 | -74.29888 | 25525 ft | 396 kts | 278° |
| 2026-05-09 15:50 | 41.07796 | -74.33455 | 25821 ft | 397 kts | 278° |
| 2026-05-09 15:51 | 41.08373 | -74.37029 | 26081 ft | 397 kts | 278° |
| 2026-05-09 15:51 | 41.08955 | -74.40621 | 26347 ft | 399 kts | 278° |
| 2026-05-09 15:51 | 41.09549 | -74.44222 | 26611 ft | 400 kts | 278° |
| 2026-05-09 15:51 | 41.10137 | -74.47827 | 26880 ft | 402 kts | 278° |
| 2026-05-09 15:52 | 41.11305 | -74.55051 | 27410 ft | 403 kts | 278° |
| 2026-05-09 15:52 | 41.11885 | -74.58678 | 27747 ft | 402 kts | 278° |
| 2026-05-09 15:52 | 41.12464 | -74.62294 | 28103 ft | 400 kts | 278° |
| 2026-05-09 15:53 | 41.13039 | -74.65913 | 28459 ft | 399 kts | 278° |
| 2026-05-09 15:53 | 41.13799 | -74.69460 | 28791 ft | 402 kts | 285° |
| 2026-05-09 15:53 | 41.15007 | -74.72824 | 29124 ft | 407 kts | 293° |
| 2026-05-09 15:53 | 41.16424 | -74.76083 | 29523 ft | 406 kts | 294° |
| 2026-05-09 15:54 | 41.17855 | -74.79320 | 29899 ft | 405 kts | 294° |
| 2026-05-09 15:54 | 41.19276 | -74.82540 | 30249 ft | 403 kts | 294° |
| 2026-05-09 15:54 | 41.20672 | -74.85747 | 30561 ft | 401 kts | 294° |
| 2026-05-09 15:54 | 41.22060 | -74.88956 | 30861 ft | 400 kts | 294° |
| 2026-05-09 15:55 | 41.23433 | -74.92109 | 31156 ft | 398 kts | 294° |
| 2026-05-09 15:55 | 41.24815 | -74.95292 | 31439 ft | 397 kts | 294° |
| 2026-05-09 15:55 | 41.26203 | -74.98505 | 31714 ft | 395 kts | 293° |
| 2026-05-09 15:55 | 41.27549 | -75.01634 | 31931 ft | 395 kts | 294° |
| 2026-05-09 15:56 | 41.28922 | -75.04804 | 31984 ft | 396 kts | 293° |
| 2026-05-09 15:56 | 41.31674 | -75.11159 | 31962 ft | 396 kts | 293° |
| 2026-05-09 15:57 | 41.34418 | -75.17524 | 31949 ft | 397 kts | 293° |
| 2026-05-09 15:57 | 41.37155 | -75.23928 | 31942 ft | 397 kts | 293° |
| 2026-05-09 15:58 | 41.39429 | -75.29243 | 31942 ft | 397 kts | 292° |
| 2026-05-09 15:58 | 41.42158 | -75.35650 | 31946 ft | 398 kts | 292° |
| 2026-05-09 15:59 | 41.44886 | -75.42057 | 31928 ft | 398 kts | 292° |
| 2026-05-09 15:59 | 41.47566 | -75.48519 | 31920 ft | 394 kts | 288° |
| 2026-05-09 16:00 | 41.49575 | -75.55289 | 31929 ft | 392 kts | 284° |
| 2026-05-09 16:00 | 41.51507 | -75.62080 | 31922 ft | 392 kts | 284° |
| 2026-05-09 16:01 | 41.53466 | -75.68888 | 31921 ft | 392 kts | 284° |
| 2026-05-09 16:01 | 41.55407 | -75.75656 | 31917 ft | 393 kts | 284° |
| 2026-05-09 16:02 | 41.57358 | -75.82462 | 31916 ft | 392 kts | 284° |
| 2026-05-09 16:02 | 41.60252 | -75.92710 | 31912 ft | 393 kts | 284° |
| 2026-05-09 16:03 | 41.62187 | -75.99543 | 31900 ft | 393 kts | 284° |
| 2026-05-09 16:03 | 41.64120 | -76.06383 | 31900 ft | 393 kts | 284° |
| 2026-05-09 16:04 | 41.66048 | -76.13247 | 31893 ft | 394 kts | 284° |
| 2026-05-09 16:04 | 41.67992 | -76.20090 | 31890 ft | 394 kts | 284° |
| 2026-05-09 16:05 | 41.69923 | -76.26941 | 31888 ft | 394 kts | 283° |
| 2026-05-09 16:05 | 41.71838 | -76.33818 | 31889 ft | 394 kts | 283° |
| 2026-05-09 16:06 | 41.73757 | -76.40689 | 31886 ft | 394 kts | 283° |
| 2026-05-09 16:06 | 41.75658 | -76.47538 | 31884 ft | 394 kts | 283° |
| 2026-05-09 16:07 | 41.77552 | -76.54429 | 31880 ft | 394 kts | 283° |
| 2026-05-09 16:07 | 41.79454 | -76.61326 | 31877 ft | 394 kts | 283° |
| 2026-05-09 16:08 | 41.81364 | -76.68220 | 31876 ft | 395 kts | 283° |
| 2026-05-09 16:08 | 41.83270 | -76.75137 | 31873 ft | 395 kts | 283° |
| 2026-05-09 16:09 | 41.85171 | -76.82047 | 31863 ft | 395 kts | 283° |
| 2026-05-09 16:09 | 41.87055 | -76.88916 | 31868 ft | 395 kts | 283° |
| 2026-05-09 16:10 | 41.88950 | -76.95851 | 31861 ft | 395 kts | 283° |
| 2026-05-09 16:10 | 41.90831 | -77.02790 | 31864 ft | 395 kts | 283° |
| 2026-05-09 16:11 | 41.92711 | -77.09725 | 31867 ft | 395 kts | 283° |
| 2026-05-09 16:11 | 41.94581 | -77.16676 | 31852 ft | 395 kts | 283° |
| 2026-05-09 16:12 | 41.96434 | -77.23567 | 31862 ft | 395 kts | 283° |
| 2026-05-09 16:12 | 41.98294 | -77.30515 | 31850 ft | 394 kts | 283° |